createdAt,value
2022-09-16T00:05:02.142Z,11.37
2022-09-16T00:20:04.549Z,11.32
2022-09-16T00:35:06.742Z,11.13
2022-09-16T00:50:10.068Z,10.92
2022-09-16T01:05:15.816Z,11.05
2022-09-16T01:20:29.473Z,11.08
2022-09-16T01:35:50.251Z,11.00
2022-09-16T01:51:12.386Z,11.12
2022-09-16T02:06:19.491Z,11.08
2022-09-16T02:21:21.809Z,11.08
2022-09-16T02:36:23.711Z,11.13
2022-09-16T02:51:43.910Z,11.14
2022-09-16T03:06:45.972Z,11.13
2022-09-16T03:21:49.680Z,10.95
2022-09-16T03:36:53.431Z,10.83
2022-09-16T03:51:55.298Z,10.73
2022-09-16T04:06:57.345Z,10.66
2022-09-16T04:21:59.337Z,10.61
2022-09-16T04:37:01.241Z,10.57
2022-09-16T04:52:03.246Z,10.62
2022-09-16T05:07:05.113Z,10.60
2022-09-16T05:22:07.325Z,10.69
2022-09-16T05:37:09.230Z,10.70
2022-09-16T05:52:11.173Z,10.87
2022-09-16T06:07:13.101Z,10.93
2022-09-16T06:22:15.010Z,11.00
2022-09-16T06:37:16.990Z,10.87
2022-09-16T06:52:19.222Z,10.95
2022-09-16T07:07:21.113Z,11.00
2022-09-16T07:22:23.075Z,10.99
2022-09-16T07:37:24.985Z,11.16
2022-09-16T07:52:29.326Z,11.25
2022-09-16T08:07:31.255Z,11.69
2022-09-16T08:22:33.808Z,12.13
2022-09-16T08:37:36.110Z,12.28
2022-09-16T08:52:38.266Z,12.53
2022-09-16T09:07:59.886Z,12.57
2022-09-16T09:23:20.658Z,12.77
2022-09-16T09:38:31.161Z,12.63
2022-09-16T09:53:36.943Z,12.98
2022-09-16T10:08:48.344Z,12.74
2022-09-16T10:23:54.202Z,12.79
2022-09-16T10:39:04.986Z,12.96
2022-09-16T10:54:11.531Z,12.54
2022-09-16T11:09:15.283Z,11.93
2022-09-16T11:24:22.542Z,11.72
2022-09-16T11:39:27.553Z,11.58
2022-09-16T11:54:33.107Z,11.90
2022-09-16T12:09:38.174Z,12.57
2022-09-16T12:24:42.665Z,13.23
2022-09-16T12:39:45.289Z,15.67
2022-09-16T12:55:07.335Z,15.32
2022-09-16T13:10:17.143Z,14.62
2022-09-16T13:25:23.380Z,13.94
2022-09-16T13:40:26.619Z,13.58
2022-09-16T13:55:28.591Z,12.96
2022-09-16T14:10:39.616Z,12.59
2022-09-16T14:25:41.515Z,12.86
2022-09-16T14:40:43.399Z,12.95
2022-09-16T14:55:47.854Z,12.74
2022-09-16T15:10:52.984Z,12.23
2022-09-16T15:26:14.692Z,12.52
2022-09-16T15:41:16.899Z,12.53
2022-09-16T15:56:28.201Z,12.94
2022-09-16T16:11:30.950Z,13.00
2022-09-16T16:26:32.803Z,12.46
2022-09-16T16:41:34.918Z,12.01
2022-09-16T16:56:40.216Z,11.62
2022-09-16T17:11:51.366Z,11.20
2022-09-16T17:26:53.224Z,10.87
2022-09-16T17:41:56.892Z,10.46
2022-09-16T17:56:58.875Z,10.24
2022-09-16T18:12:00.740Z,10.13
2022-09-16T18:27:02.728Z,9.77
2022-09-16T18:42:05.077Z,9.65
2022-09-16T18:57:07.209Z,9.06
2022-09-16T19:12:09.945Z,8.70
2022-09-16T19:27:11.819Z,8.41
2022-09-16T19:42:13.685Z,8.20
2022-09-16T19:57:15.856Z,8.18
2022-09-16T20:12:18.023Z,8.13
2022-09-16T20:27:20.401Z,8.13
2022-09-16T20:42:22.437Z,8.23
2022-09-16T20:57:28.916Z,7.99
2022-09-16T21:12:30.781Z,7.96
2022-09-16T21:27:33.133Z,8.11
2022-09-16T21:42:35.488Z,8.44
2022-09-16T21:57:37.363Z,8.30
2022-09-16T22:12:39.332Z,8.14
2022-09-16T22:27:41.280Z,8.18
2022-09-16T22:42:44.455Z,8.29
2022-09-16T22:57:46.361Z,8.46
2022-09-16T23:12:48.340Z,8.45
2022-09-16T23:27:51.042Z,8.29
2022-09-16T23:42:52.898Z,8.22
2022-09-16T23:57:54.964Z,8.22
